Weather at Galvez Airport

Public forecast

Using degrees Celsius for public forecast. Weather courtesy of forecast.io.

Closest aviation weather report (METAR) to Galvez Airport

Closest report is Rosario Islas Malvinas International Airport, 55.9 nm (103.6 km) SSE.

2024/06/14 16:00 (retrieved 16 minutes ago)

SAAR 141600Z 16013KT 9999 OVC040 21/12 Q1005

Closest aviation forecast (TAF) to Galvez Airport

Closest forecast is Rosario Islas Malvinas International Airport, 55.9 nm (103.6 km) SSE.

2024/06/14 12:00 (retrieved 4 hours ago)

TAF SAAR 141100Z 1412/1512 18010KT 9999 BKN008 TX22/1418Z TN09/1510Z TEMPO 1412/1416 18010G25KT 8000 -TSRA BKN008 FEW040CB BECMG 1416/1419 18010G20KT SCT020